sensor_id;sensor_type;location;lat;lon;timestamp;temperature;humidity
9658;DHT22;4867;48.112;11.622;2022-12-07T00:01:31;3.30;99.90
9658;DHT22;4867;48.112;11.622;2022-12-07T00:03:59;3.40;99.90
9658;DHT22;4867;48.112;11.622;2022-12-07T00:06:38;3.40;99.90
9658;DHT22;4867;48.112;11.622;2022-12-07T00:09:06;3.40;99.90
9658;DHT22;4867;48.112;11.622;2022-12-07T00:11:34;3.30;99.90
9658;DHT22;4867;48.112;11.622;2022-12-07T00:14:05;3.30;99.90
9658;DHT22;4867;48.112;11.622;2022-12-07T00:16:33;3.30;99.90
9658;DHT22;4867;48.112;11.622;2022-12-07T00:19:02;3.40;99.90
9658;DHT22;4867;48.112;11.622;2022-12-07T00:21:31;3.40;99.90
9658;DHT22;4867;48.112;11.622;2022-12-07T00:23:59;3.40;99.90
9658;DHT22;4867;48.112;11.622;2022-12-07T00:26:29;3.40;99.90
9658;DHT22;4867;48.112;11.622;2022-12-07T00:29:05;3.40;99.90
9658;DHT22;4867;48.112;11.622;2022-12-07T00:31:35;3.40;99.90
9658;DHT22;4867;48.112;11.622;2022-12-07T00:34:07;3.30;99.90
9658;DHT22;4867;48.112;11.622;2022-12-07T00:36:34;3.30;99.90
9658;DHT22;4867;48.112;11.622;2022-12-07T00:39:02;3.30;99.90
9658;DHT22;4867;48.112;11.622;2022-12-07T00:41:30;3.20;99.90
9658;DHT22;4867;48.112;11.622;2022-12-07T00:43:58;3.30;99.90
9658;DHT22;4867;48.112;11.622;2022-12-07T00:46:25;3.30;99.90
9658;DHT22;4867;48.112;11.622;2022-12-07T00:48:54;3.30;99.90
9658;DHT22;4867;48.112;11.622;2022-12-07T00:51:23;3.20;99.90
9658;DHT22;4867;48.112;11.622;2022-12-07T00:53:51;3.20;99.90
9658;DHT22;4867;48.112;11.622;2022-12-07T00:56:25;3.40;99.90
9658;DHT22;4867;48.112;11.622;2022-12-07T00:58:58;3.40;99.90
9658;DHT22;4867;48.112;11.622;2022-12-07T01:01:28;3.50;99.90
9658;DHT22;4867;48.112;11.622;2022-12-07T01:03:56;3.40;99.90
9658;DHT22;4867;48.112;11.622;2022-12-07T01:06:25;3.40;99.90
9658;DHT22;4867;48.112;11.622;2022-12-07T01:08:53;3.40;99.90
9658;DHT22;4867;48.112;11.622;2022-12-07T01:11:23;3.40;99.90
9658;DHT22;4867;48.112;11.622;2022-12-07T01:13:52;3.40;99.90
9658;DHT22;4867;48.112;11.622;2022-12-07T01:16:22;3.40;99.90
9658;DHT22;4867;48.112;11.622;2022-12-07T01:18:51;3.40;99.90
9658;DHT22;4867;48.112;11.622;2022-12-07T01:21:22;3.50;99.90
9658;DHT22;4867;48.112;11.622;2022-12-07T01:23:50;3.50;99.90
9658;DHT22;4867;48.112;11.622;2022-12-07T01:26:20;3.50;99.90
9658;DHT22;4867;48.112;11.622;2022-12-07T01:28:48;3.50;99.90
9658;DHT22;4867;48.112;11.622;2022-12-07T01:31:18;3.50;99.90
9658;DHT22;4867;48.112;11.622;2022-12-07T01:33:49;3.50;99.90
9658;DHT22;4867;48.112;11.622;2022-12-07T01:39:02;3.40;99.90
9658;DHT22;4867;48.112;11.622;2022-12-07T01:41:32;3.40;99.90
9658;DHT22;4867;48.112;11.622;2022-12-07T01:47:14;3.50;99.90
9658;DHT22;4867;48.112;11.622;2022-12-07T01:49:44;3.50;99.90
9658;DHT22;4867;48.112;11.622;2022-12-07T01:52:17;3.50;99.90
9658;DHT22;4867;48.112;11.622;2022-12-07T01:54:47;3.50;99.90
9658;DHT22;4867;48.112;11.622;2022-12-07T01:57:16;3.50;99.90
9658;DHT22;4867;48.112;11.622;2022-12-07T01:59:45;3.50;99.90
9658;DHT22;4867;48.112;11.622;2022-12-07T02:02:21;3.40;99.90
9658;DHT22;4867;48.112;11.622;2022-12-07T02:04:51;3.40;99.90
9658;DHT22;4867;48.112;11.622;2022-12-07T02:07:21;3.40;99.90
9658;DHT22;4867;48.112;11.622;2022-12-07T02:09:49;3.30;99.90
9658;DHT22;4867;48.112;11.622;2022-12-07T02:12:17;3.30;99.90
9658;DHT22;4867;48.112;11.622;2022-12-07T02:14:44;3.30;99.90
9658;DHT22;4867;48.112;11.622;2022-12-07T02:20:23;3.40;99.90
9658;DHT22;4867;48.112;11.622;2022-12-07T02:28:31;3.40;99.90
9658;DHT22;4867;48.112;11.622;2022-12-07T02:31:12;3.30;99.90
9658;DHT22;4867;48.112;11.622;2022-12-07T02:34:18;3.30;99.90
9658;DHT22;4867;48.112;11.622;2022-12-07T02:36:55;3.40;99.90
9658;DHT22;4867;48.112;11.622;2022-12-07T02:39:46;3.40;99.90
9658;DHT22;4867;48.112;11.622;2022-12-07T02:42:24;3.40;99.90
9658;DHT22;4867;48.112;11.622;2022-12-07T02:44:54;3.50;99.90
9658;DHT22;4867;48.112;11.622;2022-12-07T02:47:22;3.50;99.90
9658;DHT22;4867;48.112;11.622;2022-12-07T02:49:51;3.40;99.90
9658;DHT22;4867;48.112;11.622;2022-12-07T02:52:19;3.40;99.90
9658;DHT22;4867;48.112;11.622;2022-12-07T02:54:46;3.40;99.90
9658;DHT22;4867;48.112;11.622;2022-12-07T03:00:24;3.40;99.90
9658;DHT22;4867;48.112;11.622;2022-12-07T03:11:42;3.50;99.90
9658;DHT22;4867;48.112;11.622;2022-12-07T03:14:15;3.50;99.90
9658;DHT22;4867;48.112;11.622;2022-12-07T03:16:53;3.50;99.90
9658;DHT22;4867;48.112;11.622;2022-12-07T03:19:26;3.50;99.90
9658;DHT22;4867;48.112;11.622;2022-12-07T03:21:57;3.60;99.90
9658;DHT22;4867;48.112;11.622;2022-12-07T03:24:29;3.60;99.90
9658;DHT22;4867;48.112;11.622;2022-12-07T03:27:11;3.60;99.90
9658;DHT22;4867;48.112;11.622;2022-12-07T03:29:51;3.60;99.90
9658;DHT22;4867;48.112;11.622;2022-12-07T03:32:40;3.60;99.90
9658;DHT22;4867;48.112;11.622;2022-12-07T03:35:19;3.60;99.90
9658;DHT22;4867;48.112;11.622;2022-12-07T03:40:47;3.60;99.90
9658;DHT22;4867;48.112;11.622;2022-12-07T03:43:17;3.60;99.90
9658;DHT22;4867;48.112;11.622;2022-12-07T03:48:40;3.50;99.90
9658;DHT22;4867;48.112;11.622;2022-12-07T03:51:25;3.50;99.90
9658;DHT22;4867;48.112;11.622;2022-12-07T03:54:02;3.50;99.90
9658;DHT22;4867;48.112;11.622;2022-12-07T03:56:35;3.50;99.90
9658;DHT22;4867;48.112;11.622;2022-12-07T03:59:03;3.50;99.90
9658;DHT22;4867;48.112;11.622;2022-12-07T04:01:31;3.50;99.90
9658;DHT22;4867;48.112;11.622;2022-12-07T04:03:59;3.50;99.90
9658;DHT22;4867;48.112;11.622;2022-12-07T04:06:26;3.50;99.90
9658;DHT22;4867;48.112;11.622;2022-12-07T04:08:53;3.50;99.90
9658;DHT22;4867;48.112;11.622;2022-12-07T04:11:20;3.60;99.90
9658;DHT22;4867;48.112;11.622;2022-12-07T04:13:47;3.60;99.90
9658;DHT22;4867;48.112;11.622;2022-12-07T04:16:33;3.60;99.90
9658;DHT22;4867;48.112;11.622;2022-12-07T04:19:08;3.60;99.90
9658;DHT22;4867;48.112;11.622;2022-12-07T04:21:35;3.60;99.90
9658;DHT22;4867;48.112;11.622;2022-12-07T04:24:03;3.50;99.90
9658;DHT22;4867;48.112;11.622;2022-12-07T04:26:31;3.60;99.90
9658;DHT22;4867;48.112;11.622;2022-12-07T04:28:58;3.60;99.90
9658;DHT22;4867;48.112;11.622;2022-12-07T04:31:32;3.60;99.90
9658;DHT22;4867;48.112;11.622;2022-12-07T04:33:59;3.60;99.90
9658;DHT22;4867;48.112;11.622;2022-12-07T04:36:26;3.60;99.90
9658;DHT22;4867;48.112;11.622;2022-12-07T04:38:54;3.60;99.90
9658;DHT22;4867;48.112;11.622;2022-12-07T04:41:22;3.60;99.90
9658;DHT22;4867;48.112;11.622;2022-12-07T04:44:02;3.50;99.90
9658;DHT22;4867;48.112;11.622;2022-12-07T04:46:30;3.40;99.90
9658;DHT22;4867;48.112;11.622;2022-12-07T04:48:58;3.40;99.90
9658;DHT22;4867;48.112;11.622;2022-12-07T04:51:28;3.40;99.90
9658;DHT22;4867;48.112;11.622;2022-12-07T04:53:56;3.30;99.90
9658;DHT22;4867;48.112;11.622;2022-12-07T04:56:24;3.30;99.90
9658;DHT22;4867;48.112;11.622;2022-12-07T04:58:53;3.20;99.90
9658;DHT22;4867;48.112;11.622;2022-12-07T05:01:21;3.20;99.90
9658;DHT22;4867;48.112;11.622;2022-12-07T05:03:49;3.10;99.90
9658;DHT22;4867;48.112;11.622;2022-12-07T05:06:17;3.10;99.90
9658;DHT22;4867;48.112;11.622;2022-12-07T05:08:44;3.00;99.90
9658;DHT22;4867;48.112;11.622;2022-12-07T05:11:12;3.10;99.90
9658;DHT22;4867;48.112;11.622;2022-12-07T05:14:01;3.00;99.90
9658;DHT22;4867;48.112;11.622;2022-12-07T05:16:28;2.80;99.90
9658;DHT22;4867;48.112;11.622;2022-12-07T05:18:56;2.80;99.90
9658;DHT22;4867;48.112;11.622;2022-12-07T05:21:23;2.80;99.90
9658;DHT22;4867;48.112;11.622;2022-12-07T05:23:51;2.80;99.90
9658;DHT22;4867;48.112;11.622;2022-12-07T05:26:18;2.80;99.90
9658;DHT22;4867;48.112;11.622;2022-12-07T05:28:50;2.70;99.90
9658;DHT22;4867;48.112;11.622;2022-12-07T05:31:18;2.70;99.90
9658;DHT22;4867;48.112;11.622;2022-12-07T05:33:45;2.80;99.90
9658;DHT22;4867;48.112;11.622;2022-12-07T05:36:13;2.80;99.90
9658;DHT22;4867;48.112;11.622;2022-12-07T05:38:40;2.80;99.90
9658;DHT22;4867;48.112;11.622;2022-12-07T05:41:08;2.80;99.90
9658;DHT22;4867;48.112;11.622;2022-12-07T05:43:58;2.80;99.90
9658;DHT22;4867;48.112;11.622;2022-12-07T05:46:25;2.80;99.90
9658;DHT22;4867;48.112;11.622;2022-12-07T05:48:53;2.70;99.90
9658;DHT22;4867;48.112;11.622;2022-12-07T05:51:20;2.70;99.90
9658;DHT22;4867;48.112;11.622;2022-12-07T05:53:47;2.70;99.90
9658;DHT22;4867;48.112;11.622;2022-12-07T05:56:15;2.70;99.90
9658;DHT22;4867;48.112;11.622;2022-12-07T05:58:42;2.70;99.90
9658;DHT22;4867;48.112;11.622;2022-12-07T06:01:28;2.70;99.90
9658;DHT22;4867;48.112;11.622;2022-12-07T06:03:55;2.70;99.90
9658;DHT22;4867;48.112;11.622;2022-12-07T06:06:22;2.70;99.90
9658;DHT22;4867;48.112;11.622;2022-12-07T06:08:50;2.70;99.90
9658;DHT22;4867;48.112;11.622;2022-12-07T06:11:17;2.60;99.90
9658;DHT22;4867;48.112;11.622;2022-12-07T06:14:03;2.60;99.90
9658;DHT22;4867;48.112;11.622;2022-12-07T06:16:30;2.50;99.90
9658;DHT22;4867;48.112;11.622;2022-12-07T06:18:57;2.50;99.90
9658;DHT22;4867;48.112;11.622;2022-12-07T06:21:25;2.50;99.90
9658;DHT22;4867;48.112;11.622;2022-12-07T06:23:53;2.50;99.90
9658;DHT22;4867;48.112;11.622;2022-12-07T06:26:21;2.60;99.90
9658;DHT22;4867;48.112;11.622;2022-12-07T06:28:48;2.60;99.90
9658;DHT22;4867;48.112;11.622;2022-12-07T06:31:15;2.60;99.90
9658;DHT22;4867;48.112;11.622;2022-12-07T06:33:43;2.60;99.90
9658;DHT22;4867;48.112;11.622;2022-12-07T06:36:10;2.60;99.90
9658;DHT22;4867;48.112;11.622;2022-12-07T06:38:38;2.60;99.90
9658;DHT22;4867;48.112;11.622;2022-12-07T06:41:06;2.60;99.90
9658;DHT22;4867;48.112;11.622;2022-12-07T06:43:33;2.60;99.90
9658;DHT22;4867;48.112;11.622;2022-12-07T06:46:01;2.70;99.90
9658;DHT22;4867;48.112;11.622;2022-12-07T06:48:28;2.70;99.90
9658;DHT22;4867;48.112;11.622;2022-12-07T06:50:55;2.60;99.90
9658;DHT22;4867;48.112;11.622;2022-12-07T06:53:22;2.60;99.90
9658;DHT22;4867;48.112;11.622;2022-12-07T06:55:50;2.60;99.90
9658;DHT22;4867;48.112;11.622;2022-12-07T06:58:18;2.60;99.90
9658;DHT22;4867;48.112;11.622;2022-12-07T07:00:47;2.70;99.90
9658;DHT22;4867;48.112;11.622;2022-12-07T07:03:14;2.70;99.90
9658;DHT22;4867;48.112;11.622;2022-12-07T07:05:42;2.70;99.90
9658;DHT22;4867;48.112;11.622;2022-12-07T07:08:10;2.70;99.90
9658;DHT22;4867;48.112;11.622;2022-12-07T07:10:53;2.70;99.90
9658;DHT22;4867;48.112;11.622;2022-12-07T07:13:20;2.80;99.90
9658;DHT22;4867;48.112;11.622;2022-12-07T07:15:48;2.80;99.90
9658;DHT22;4867;48.112;11.622;2022-12-07T07:18:15;2.80;99.90
9658;DHT22;4867;48.112;11.622;2022-12-07T07:20:42;2.80;99.90
9658;DHT22;4867;48.112;11.622;2022-12-07T07:23:09;2.90;99.90
9658;DHT22;4867;48.112;11.622;2022-12-07T07:25:36;2.90;99.90
9658;DHT22;4867;48.112;11.622;2022-12-07T07:28:04;2.90;99.90
9658;DHT22;4867;48.112;11.622;2022-12-07T07:30:31;2.90;99.90
9658;DHT22;4867;48.112;11.622;2022-12-07T07:32:59;2.80;99.90
9658;DHT22;4867;48.112;11.622;2022-12-07T07:35:28;2.90;99.90
9658;DHT22;4867;48.112;11.622;2022-12-07T07:37:56;3.00;99.90
9658;DHT22;4867;48.112;11.622;2022-12-07T07:40:24;3.00;99.90
9658;DHT22;4867;48.112;11.622;2022-12-07T07:42:52;3.00;99.90
9658;DHT22;4867;48.112;11.622;2022-12-07T07:45:22;3.00;99.90
9658;DHT22;4867;48.112;11.622;2022-12-07T07:47:49;3.00;99.90
9658;DHT22;4867;48.112;11.622;2022-12-07T07:50:17;3.00;99.90
9658;DHT22;4867;48.112;11.622;2022-12-07T07:52:45;3.10;99.90
9658;DHT22;4867;48.112;11.622;2022-12-07T07:55:12;3.10;99.90
9658;DHT22;4867;48.112;11.622;2022-12-07T07:57:46;3.10;99.90
9658;DHT22;4867;48.112;11.622;2022-12-07T08:00:21;3.10;99.90
9658;DHT22;4867;48.112;11.622;2022-12-07T08:02:48;3.10;99.90
9658;DHT22;4867;48.112;11.622;2022-12-07T08:05:16;3.10;99.90
9658;DHT22;4867;48.112;11.622;2022-12-07T08:07:43;3.20;99.90
9658;DHT22;4867;48.112;11.622;2022-12-07T08:10:12;3.20;99.90
9658;DHT22;4867;48.112;11.622;2022-12-07T08:12:41;3.10;99.90
9658;DHT22;4867;48.112;11.622;2022-12-07T08:15:28;3.10;99.90
9658;DHT22;4867;48.112;11.622;2022-12-07T08:17:56;3.10;99.90
9658;DHT22;4867;48.112;11.622;2022-12-07T08:20:23;3.10;99.90
9658;DHT22;4867;48.112;11.622;2022-12-07T08:22:50;3.10;99.90
9658;DHT22;4867;48.112;11.622;2022-12-07T08:25:18;3.10;99.90
9658;DHT22;4867;48.112;11.622;2022-12-07T08:27:45;3.10;99.90
9658;DHT22;4867;48.112;11.622;2022-12-07T08:30:13;3.10;99.90
9658;DHT22;4867;48.112;11.622;2022-12-07T08:32:40;3.10;99.90
9658;DHT22;4867;48.112;11.622;2022-12-07T08:35:08;3.20;99.90
9658;DHT22;4867;48.112;11.622;2022-12-07T08:37:35;3.30;99.90
9658;DHT22;4867;48.112;11.622;2022-12-07T08:40:04;3.30;99.90
9658;DHT22;4867;48.112;11.622;2022-12-07T08:42:32;3.30;99.90
9658;DHT22;4867;48.112;11.622;2022-12-07T08:45:10;3.30;99.90
9658;DHT22;4867;48.112;11.622;2022-12-07T08:47:50;3.40;99.90
9658;DHT22;4867;48.112;11.622;2022-12-07T08:50:19;3.30;99.90
9658;DHT22;4867;48.112;11.622;2022-12-07T08:52:51;3.40;99.90
9658;DHT22;4867;48.112;11.622;2022-12-07T08:55:19;3.40;99.90
9658;DHT22;4867;48.112;11.622;2022-12-07T08:57:47;3.50;99.90
9658;DHT22;4867;48.112;11.622;2022-12-07T09:00:15;3.50;99.90
9658;DHT22;4867;48.112;11.622;2022-12-07T09:02:44;3.50;99.90
9658;DHT22;4867;48.112;11.622;2022-12-07T09:05:13;3.60;99.90
9658;DHT22;4867;48.112;11.622;2022-12-07T09:07:45;3.60;99.90
9658;DHT22;4867;48.112;11.622;2022-12-07T09:10:13;3.60;99.90
9658;DHT22;4867;48.112;11.622;2022-12-07T09:12:40;3.70;99.90
9658;DHT22;4867;48.112;11.622;2022-12-07T09:15:07;3.70;99.90
9658;DHT22;4867;48.112;11.622;2022-12-07T09:17:35;3.70;99.90
9658;DHT22;4867;48.112;11.622;2022-12-07T09:20:04;3.70;99.90
9658;DHT22;4867;48.112;11.622;2022-12-07T09:22:32;3.80;99.90
9658;DHT22;4867;48.112;11.622;2022-12-07T09:25:00;3.80;99.90
9658;DHT22;4867;48.112;11.622;2022-12-07T09:27:28;3.80;99.90
9658;DHT22;4867;48.112;11.622;2022-12-07T09:29:55;3.90;99.90
9658;DHT22;4867;48.112;11.622;2022-12-07T09:32:22;4.00;99.90
9658;DHT22;4867;48.112;11.622;2022-12-07T09:34:50;4.00;99.90
9658;DHT22;4867;48.112;11.622;2022-12-07T09:37:17;4.10;99.90
9658;DHT22;4867;48.112;11.622;2022-12-07T09:39:45;4.10;99.90
9658;DHT22;4867;48.112;11.622;2022-12-07T09:42:34;4.20;99.90
9658;DHT22;4867;48.112;11.622;2022-12-07T09:45:02;4.30;99.90
9658;DHT22;4867;48.112;11.622;2022-12-07T09:47:32;4.40;99.90
9658;DHT22;4867;48.112;11.622;2022-12-07T09:50:05;4.40;99.90
9658;DHT22;4867;48.112;11.622;2022-12-07T09:52:33;4.50;99.90
9658;DHT22;4867;48.112;11.622;2022-12-07T09:55:14;4.50;99.90
9658;DHT22;4867;48.112;11.622;2022-12-07T09:57:42;4.50;99.90
9658;DHT22;4867;48.112;11.622;2022-12-07T10:00:16;4.50;99.90
9658;DHT22;4867;48.112;11.622;2022-12-07T10:02:47;4.60;99.90
9658;DHT22;4867;48.112;11.622;2022-12-07T10:05:22;4.60;99.90
9658;DHT22;4867;48.112;11.622;2022-12-07T10:07:51;4.70;99.90
9658;DHT22;4867;48.112;11.622;2022-12-07T10:10:28;4.80;99.90
9658;DHT22;4867;48.112;11.622;2022-12-07T10:13:05;4.80;99.90
9658;DHT22;4867;48.112;11.622;2022-12-07T10:18:40;4.80;99.90
9658;DHT22;4867;48.112;11.622;2022-12-07T10:23:38;4.90;99.90
9658;DHT22;4867;48.112;11.622;2022-12-07T10:26:29;4.90;99.90
9658;DHT22;4867;48.112;11.622;2022-12-07T10:31:42;5.00;99.90
9658;DHT22;4867;48.112;11.622;2022-12-07T10:34:25;5.00;99.90
9658;DHT22;4867;48.112;11.622;2022-12-07T10:36:53;5.10;99.90
9658;DHT22;4867;48.112;11.622;2022-12-07T10:39:47;5.20;99.90
9658;DHT22;4867;48.112;11.622;2022-12-07T10:42:24;5.10;99.90
9658;DHT22;4867;48.112;11.622;2022-12-07T11:02:11;5.10;99.90
9658;DHT22;4867;48.112;11.622;2022-12-07T11:07:55;5.00;99.90
9658;DHT22;4867;48.112;11.622;2022-12-07T11:13:59;5.00;99.90
9658;DHT22;4867;48.112;11.622;2022-12-07T11:19:24;5.00;99.90
9658;DHT22;4867;48.112;11.622;2022-12-07T11:22:00;5.00;99.90
9658;DHT22;4867;48.112;11.622;2022-12-07T11:27:30;5.00;99.90
9658;DHT22;4867;48.112;11.622;2022-12-07T11:30:22;5.00;99.90
9658;DHT22;4867;48.112;11.622;2022-12-07T11:38:41;5.30;99.90
9658;DHT22;4867;48.112;11.622;2022-12-07T11:41:10;5.40;99.90
9658;DHT22;4867;48.112;11.622;2022-12-07T11:43:54;5.40;99.90
9658;DHT22;4867;48.112;11.622;2022-12-07T11:46:43;5.50;99.90
9658;DHT22;4867;48.112;11.622;2022-12-07T11:49:32;5.60;99.90
9658;DHT22;4867;48.112;11.622;2022-12-07T11:52:06;5.50;99.90
9658;DHT22;4867;48.112;11.622;2022-12-07T11:54:42;5.40;99.90
9658;DHT22;4867;48.112;11.622;2022-12-07T11:57:20;5.50;99.90
9658;DHT22;4867;48.112;11.622;2022-12-07T11:59:52;5.30;99.90
9658;DHT22;4867;48.112;11.622;2022-12-07T12:02:34;5.20;99.90
9658;DHT22;4867;48.112;11.622;2022-12-07T12:05:19;5.30;99.90
9658;DHT22;4867;48.112;11.622;2022-12-07T12:11:03;5.40;99.90
9658;DHT22;4867;48.112;11.622;2022-12-07T12:14:02;5.30;99.90
9658;DHT22;4867;48.112;11.622;2022-12-07T12:20:01;5.40;99.90
9658;DHT22;4867;48.112;11.622;2022-12-07T12:22:40;5.50;99.90
9658;DHT22;4867;48.112;11.622;2022-12-07T12:25:28;5.60;99.90
9658;DHT22;4867;48.112;11.622;2022-12-07T12:27:58;5.80;99.90
9658;DHT22;4867;48.112;11.622;2022-12-07T12:30:39;5.90;99.90
9658;DHT22;4867;48.112;11.622;2022-12-07T12:33:20;5.90;99.90
9658;DHT22;4867;48.112;11.622;2022-12-07T12:46:56;5.80;99.90
9658;DHT22;4867;48.112;11.622;2022-12-07T12:51:59;5.70;99.90
9658;DHT22;4867;48.112;11.622;2022-12-07T12:55:18;5.60;99.90
9658;DHT22;4867;48.112;11.622;2022-12-07T12:57:27;5.70;99.90
9658;DHT22;4867;48.112;11.622;2022-12-07T13:02:35;5.60;99.90
9658;DHT22;4867;48.112;11.622;2022-12-07T13:29:13;5.30;99.90
9658;DHT22;4867;48.112;11.622;2022-12-07T13:31:43;5.40;99.90
9658;DHT22;4867;48.112;11.622;2022-12-07T13:34:34;5.50;99.90
9658;DHT22;4867;48.112;11.622;2022-12-07T13:39:52;5.70;99.90
9658;DHT22;4867;48.112;11.622;2022-12-07T13:42:32;5.70;99.90
9658;DHT22;4867;48.112;11.622;2022-12-07T13:45:16;5.60;99.90
9658;DHT22;4867;48.112;11.622;2022-12-07T13:47:54;5.60;99.90
9658;DHT22;4867;48.112;11.622;2022-12-07T13:52:55;5.60;99.90
9658;DHT22;4867;48.112;11.622;2022-12-07T13:55:23;5.60;99.90
9658;DHT22;4867;48.112;11.622;2022-12-07T13:57:52;5.70;99.90
9658;DHT22;4867;48.112;11.622;2022-12-07T14:00:24;5.80;99.90
9658;DHT22;4867;48.112;11.622;2022-12-07T14:03:00;5.80;99.90
9658;DHT22;4867;48.112;11.622;2022-12-07T14:05:31;5.70;99.90
9658;DHT22;4867;48.112;11.622;2022-12-07T14:07:59;5.60;99.90
9658;DHT22;4867;48.112;11.622;2022-12-07T14:13:00;5.60;99.90
9658;DHT22;4867;48.112;11.622;2022-12-07T14:15:33;5.50;99.90
9658;DHT22;4867;48.112;11.622;2022-12-07T14:18:02;5.40;99.90
9658;DHT22;4867;48.112;11.622;2022-12-07T14:20:40;5.20;99.90
9658;DHT22;4867;48.112;11.622;2022-12-07T14:23:24;5.20;99.90
9658;DHT22;4867;48.112;11.622;2022-12-07T14:25:52;5.00;99.90
9658;DHT22;4867;48.112;11.622;2022-12-07T14:28:33;5.00;99.90
9658;DHT22;4867;48.112;11.622;2022-12-07T14:31:02;5.00;99.90
9658;DHT22;4867;48.112;11.622;2022-12-07T14:33:30;5.00;99.90
9658;DHT22;4867;48.112;11.622;2022-12-07T14:35:57;5.10;99.90
9658;DHT22;4867;48.112;11.622;2022-12-07T14:38:26;5.20;99.90
9658;DHT22;4867;48.112;11.622;2022-12-07T14:40:53;5.20;99.90
9658;DHT22;4867;48.112;11.622;2022-12-07T14:43:21;5.20;99.90
9658;DHT22;4867;48.112;11.622;2022-12-07T14:45:49;5.20;99.90
9658;DHT22;4867;48.112;11.622;2022-12-07T14:48:16;5.20;99.90
9658;DHT22;4867;48.112;11.622;2022-12-07T14:51:03;5.10;99.90
9658;DHT22;4867;48.112;11.622;2022-12-07T14:53:52;5.00;99.90
9658;DHT22;4867;48.112;11.622;2022-12-07T14:56:24;5.00;99.90
9658;DHT22;4867;48.112;11.622;2022-12-07T14:58:51;4.90;99.90
9658;DHT22;4867;48.112;11.622;2022-12-07T15:01:19;4.90;99.90
9658;DHT22;4867;48.112;11.622;2022-12-07T15:03:46;4.70;99.90
9658;DHT22;4867;48.112;11.622;2022-12-07T15:06:17;4.50;99.90
9658;DHT22;4867;48.112;11.622;2022-12-07T15:08:45;4.40;99.90
9658;DHT22;4867;48.112;11.622;2022-12-07T15:11:14;4.30;99.90
9658;DHT22;4867;48.112;11.622;2022-12-07T15:13:41;4.20;99.90
9658;DHT22;4867;48.112;11.622;2022-12-07T15:16:27;4.10;99.90
9658;DHT22;4867;48.112;11.622;2022-12-07T15:19:19;3.90;99.90
9658;DHT22;4867;48.112;11.622;2022-12-07T15:21:54;3.90;99.90
9658;DHT22;4867;48.112;11.622;2022-12-07T15:24:22;3.70;99.90
9658;DHT22;4867;48.112;11.622;2022-12-07T15:26:51;3.70;99.90
9658;DHT22;4867;48.112;11.622;2022-12-07T15:29:18;3.70;99.90
9658;DHT22;4867;48.112;11.622;2022-12-07T15:31:51;3.60;99.90
9658;DHT22;4867;48.112;11.622;2022-12-07T15:34:25;3.50;99.90
9658;DHT22;4867;48.112;11.622;2022-12-07T15:36:53;3.40;99.90
9658;DHT22;4867;48.112;11.622;2022-12-07T15:39:21;3.30;99.90
9658;DHT22;4867;48.112;11.622;2022-12-07T15:41:49;3.20;99.90
9658;DHT22;4867;48.112;11.622;2022-12-07T15:44:16;3.20;99.90
9658;DHT22;4867;48.112;11.622;2022-12-07T15:47:02;3.20;99.90
9658;DHT22;4867;48.112;11.622;2022-12-07T15:49:30;3.20;99.90
9658;DHT22;4867;48.112;11.622;2022-12-07T15:51:58;3.20;99.90
9658;DHT22;4867;48.112;11.622;2022-12-07T15:54:26;3.20;99.90
9658;DHT22;4867;48.112;11.622;2022-12-07T15:56:55;3.20;99.90
9658;DHT22;4867;48.112;11.622;2022-12-07T15:59:23;3.20;99.90
9658;DHT22;4867;48.112;11.622;2022-12-07T16:01:50;3.20;99.90
9658;DHT22;4867;48.112;11.622;2022-12-07T16:04:17;3.20;99.90
9658;DHT22;4867;48.112;11.622;2022-12-07T16:06:45;3.20;99.90
9658;DHT22;4867;48.112;11.622;2022-12-07T16:09:13;3.10;99.90
9658;DHT22;4867;48.112;11.622;2022-12-07T16:11:40;3.20;99.90
9658;DHT22;4867;48.112;11.622;2022-12-07T16:14:07;3.10;99.90
9658;DHT22;4867;48.112;11.622;2022-12-07T16:16:35;3.10;99.90
9658;DHT22;4867;48.112;11.622;2022-12-07T16:19:02;3.10;99.90
9658;DHT22;4867;48.112;11.622;2022-12-07T16:21:29;3.00;99.90
9658;DHT22;4867;48.112;11.622;2022-12-07T16:24:00;2.90;99.90
9658;DHT22;4867;48.112;11.622;2022-12-07T16:26:27;3.00;99.90
9658;DHT22;4867;48.112;11.622;2022-12-07T16:28:54;2.90;99.90
9658;DHT22;4867;48.112;11.622;2022-12-07T16:31:25;2.90;99.90
9658;DHT22;4867;48.112;11.622;2022-12-07T16:33:55;2.90;99.90
9658;DHT22;4867;48.112;11.622;2022-12-07T16:36:23;2.90;99.90
9658;DHT22;4867;48.112;11.622;2022-12-07T16:39:12;2.90;99.90
9658;DHT22;4867;48.112;11.622;2022-12-07T16:41:39;2.90;99.90
9658;DHT22;4867;48.112;11.622;2022-12-07T16:44:09;2.90;99.90
9658;DHT22;4867;48.112;11.622;2022-12-07T16:46:36;2.90;99.90
9658;DHT22;4867;48.112;11.622;2022-12-07T16:49:04;2.80;99.90
9658;DHT22;4867;48.112;11.622;2022-12-07T16:51:32;2.80;99.90
9658;DHT22;4867;48.112;11.622;2022-12-07T16:54:01;2.80;99.90
9658;DHT22;4867;48.112;11.622;2022-12-07T16:56:28;2.80;99.90
9658;DHT22;4867;48.112;11.622;2022-12-07T16:58:58;2.80;99.90
9658;DHT22;4867;48.112;11.622;2022-12-07T17:01:25;2.80;99.90
9658;DHT22;4867;48.112;11.622;2022-12-07T17:03:57;2.80;99.90
9658;DHT22;4867;48.112;11.622;2022-12-07T17:06:26;2.70;99.90
9658;DHT22;4867;48.112;11.622;2022-12-07T17:08:56;2.70;99.90
9658;DHT22;4867;48.112;11.622;2022-12-07T17:11:29;2.70;99.90
9658;DHT22;4867;48.112;11.622;2022-12-07T17:13:59;2.70;99.90
9658;DHT22;4867;48.112;11.622;2022-12-07T17:16:45;2.70;99.90
9658;DHT22;4867;48.112;11.622;2022-12-07T17:19:15;2.70;99.90
9658;DHT22;4867;48.112;11.622;2022-12-07T17:21:43;2.70;99.90
9658;DHT22;4867;48.112;11.622;2022-12-07T17:24:13;2.70;99.90
9658;DHT22;4867;48.112;11.622;2022-12-07T17:26:42;2.70;99.90
9658;DHT22;4867;48.112;11.622;2022-12-07T17:29:11;2.60;99.90
9658;DHT22;4867;48.112;11.622;2022-12-07T17:31:39;2.60;99.90
9658;DHT22;4867;48.112;11.622;2022-12-07T17:34:15;2.50;99.90
9658;DHT22;4867;48.112;11.622;2022-12-07T17:36:42;2.40;99.90
9658;DHT22;4867;48.112;11.622;2022-12-07T17:39:11;2.40;99.90
9658;DHT22;4867;48.112;11.622;2022-12-07T17:41:40;2.40;99.90
9658;DHT22;4867;48.112;11.622;2022-12-07T17:44:27;2.30;99.90
9658;DHT22;4867;48.112;11.622;2022-12-07T17:46:55;2.30;99.90
9658;DHT22;4867;48.112;11.622;2022-12-07T17:49:26;2.30;99.90
9658;DHT22;4867;48.112;11.622;2022-12-07T17:51:54;2.20;99.90
9658;DHT22;4867;48.112;11.622;2022-12-07T17:54:40;2.30;99.90
9658;DHT22;4867;48.112;11.622;2022-12-07T17:57:07;2.20;99.90
9658;DHT22;4867;48.112;11.622;2022-12-07T17:59:35;2.30;99.90
9658;DHT22;4867;48.112;11.622;2022-12-07T18:02:02;2.30;99.90
9658;DHT22;4867;48.112;11.622;2022-12-07T18:04:30;2.30;99.90
9658;DHT22;4867;48.112;11.622;2022-12-07T18:06:57;2.30;99.90
9658;DHT22;4867;48.112;11.622;2022-12-07T18:09:24;2.30;99.90
9658;DHT22;4867;48.112;11.622;2022-12-07T18:11:51;2.30;99.90
9658;DHT22;4867;48.112;11.622;2022-12-07T18:14:19;2.40;99.90
9658;DHT22;4867;48.112;11.622;2022-12-07T18:16:46;2.40;99.90
9658;DHT22;4867;48.112;11.622;2022-12-07T18:19:13;2.40;99.90
9658;DHT22;4867;48.112;11.622;2022-12-07T18:21:42;2.40;99.90
9658;DHT22;4867;48.112;11.622;2022-12-07T18:24:11;2.50;99.90
9658;DHT22;4867;48.112;11.622;2022-12-07T18:26:39;2.50;99.90
9658;DHT22;4867;48.112;11.622;2022-12-07T18:29:07;2.50;99.90
9658;DHT22;4867;48.112;11.622;2022-12-07T18:31:36;2.60;99.90
9658;DHT22;4867;48.112;11.622;2022-12-07T18:34:06;2.60;99.90
9658;DHT22;4867;48.112;11.622;2022-12-07T18:36:39;2.60;99.90
9658;DHT22;4867;48.112;11.622;2022-12-07T18:39:08;2.60;99.90